Time;durP1;ratioP1;P1;durP2;ratioP2;P2;SDS_P1;SDS_P2;PMS_P1;PMS_P2;Temp;Humidity;BMP_temperature;BMP_pressure;BME280_temperature;BME280_humidity;BME280_pressure;Samples;Min_cycle;Max_cycle;Signal;HPM_P1;HPM_P2
2023/09/28 00:00:37;9869.00;0.03;17.72;0.00;0.00;0.62;;;;;17.00;1.00;;;;;;2282941;60;1796;-88
2023/09/28 00:03:06;24885.00;0.08;43.73;0.00;0.00;0.62;;;;;16.80;1.00;;;;;;2283113;60;1096;-88
2023/09/28 00:05:34;29704.00;0.10;52.07;0.00;0.00;0.62;;;;;16.90;1.00;;;;;;2283022;60;985;-89
2023/09/28 00:08:03;165179.00;0.55;285.96;0.00;0.00;0.62;;;;;17.00;1.00;;;;;;2283132;60;1027;-88
2023/09/28 00:10:30;13910.00;0.05;24.72;0.00;0.00;0.62;;;;;16.90;1.00;;;;;;2283045;60;1378;-92
2023/09/28 00:12:57;41745.00;0.14;72.91;0.00;0.00;0.62;;;;;16.90;1.00;;;;;;2282990;60;2313;-88
2023/09/28 00:15:24;3601.00;0.01;6.86;0.00;0.00;0.62;;;;;17.00;1.00;;;;;;2283240;60;1111;-89
2023/09/28 00:17:52;15555.00;0.05;27.57;0.00;0.00;0.62;;;;;17.00;1.00;;;;;;2287109;60;2005;-88
2023/09/28 00:20:20;34329.00;0.11;60.08;0.00;0.00;0.62;;;;;17.00;1.00;;;;;;2287078;60;1358;-88
2023/09/28 00:22:47;19993.00;0.07;35.26;0.00;0.00;0.62;;;;;17.00;1.00;;;;;;2287128;60;1148;-87
2023/09/28 00:25:16;148838.00;0.50;257.80;20249.00;0.07;35.70;;;;;16.90;1.00;;;;;;2287123;60;1028;-87
2023/09/28 00:27:43;577.00;0.00;1.62;0.00;0.00;0.62;;;;;16.80;1.00;;;;;;2285746;60;1139;-88
2023/09/28 00:30:12;491309.00;1.64;846.86;31192.00;0.10;54.65;;;;;16.90;1.00;;;;;;2284336;60;1738;-87
2023/09/28 00:32:38;252.00;0.00;1.06;0.00;0.00;0.62;;;;;16.90;1.00;;;;;;2284408;60;1102;-88
2023/09/28 00:35:07;0.00;0.00;0.62;0.00;0.00;0.62;;;;;17.00;1.00;;;;;;2284338;60;953;-87
2023/09/28 00:37:34;229642.00;0.77;396.93;0.00;0.00;0.62;;;;;17.00;1.00;;;;;;2284334;60;2000;-88
2023/09/28 00:40:07;379457.00;1.26;654.49;61775.00;0.21;107.55;;;;;16.90;1.00;;;;;;2284336;60;1282;-88
2023/09/28 00:42:33;251138.00;0.84;433.91;0.00;0.00;0.62;;;;;16.90;1.00;;;;;;2284372;60;1046;-87
2023/09/28 00:45:00;41545.00;0.14;72.56;0.00;0.00;0.62;;;;;16.70;1.00;;;;;;2284134;60;1572;-87
2023/09/28 00:47:26;75781.00;0.25;131.75;0.00;0.00;0.62;;;;;16.50;1.00;;;;;;2284339;60;1061;-87
2023/09/28 00:49:54;113733.00;0.38;197.27;0.00;0.00;0.62;;;;;16.00;1.70;;;;;;2284255;60;2348;-88
2023/09/28 00:52:21;243172.00;0.81;420.21;43991.00;0.15;76.79;;;;;15.60;2.90;;;;;;2284374;60;1277;-87
2023/09/28 00:54:50;0.00;0.00;0.62;0.00;0.00;0.62;;;;;15.70;3.00;;;;;;2284495;60;1085;-87
2023/09/28 00:57:16;0.00;0.00;0.62;0.00;0.00;0.62;;;;;15.60;2.90;;;;;;2284189;60;2021;-87
2023/09/28 00:59:44;0.00;0.00;0.62;0.00;0.00;0.62;;;;;15.30;4.20;;;;;;2284218;60;1307;-88
2023/09/28 01:02:10;231288.00;0.77;399.76;0.00;0.00;0.62;;;;;15.30;5.00;;;;;;2284293;60;1099;-87
2023/09/28 01:04:37;156680.00;0.52;271.32;0.00;0.00;0.62;;;;;15.20;4.70;;;;;;2284248;60;996;-86
2023/09/28 01:07:04;0.00;0.00;0.62;0.00;0.00;0.62;;;;;15.00;5.50;;;;;;2284244;60;1013;-86
2023/09/28 01:09:31;118070.00;0.39;204.75;0.00;0.00;0.62;;;;;15.00;6.40;;;;;;2284148;60;1289;-88
2023/09/28 01:11:58;157099.00;0.52;272.04;0.00;0.00;0.62;;;;;15.20;5.20;;;;;;2284176;60;1794;-88
2023/09/28 01:14:27;36650.00;0.12;64.09;0.00;0.00;0.62;;;;;15.40;4.60;;;;;;2284202;60;968;-87
2023/09/28 01:16:52;9551.00;0.03;17.17;0.00;0.00;0.62;;;;;15.70;3.00;;;;;;2284125;60;2003;-88
2023/09/28 01:19:19;171895.00;0.57;297.53;0.00;0.00;0.62;;;;;16.00;1.80;;;;;;2284223;60;1058;-88
2023/09/28 01:21:45;59960.00;0.20;104.41;0.00;0.00;0.62;;;;;16.10;1.10;;;;;;2284026;60;1286;-89
2023/09/28 01:24:13;262968.00;0.88;454.25;0.00;0.00;0.62;;;;;16.10;1.00;;;;;;2284254;60;1089;-88
2023/09/28 01:26:39;78554.00;0.26;136.54;0.00;0.00;0.62;;;;;16.00;1.40;;;;;;2284241;60;1082;-88
2023/09/28 01:29:06;80665.00;0.27;140.19;0.00;0.00;0.62;;;;;15.90;1.60;;;;;;2284207;60;1064;-87
2023/09/28 01:31:32;22520.00;0.08;39.63;0.00;0.00;0.62;;;;;16.00;1.20;;;;;;2284200;60;1457;-89
2023/09/28 01:33:59;0.00;0.00;0.62;0.00;0.00;0.62;;;;;16.20;1.00;;;;;;2284108;60;1152;-88
2023/09/28 01:36:25;48307.00;0.16;84.26;0.00;0.00;0.62;;;;;16.50;1.00;;;;;;2284158;60;1914;-88
2023/09/28 01:38:58;141324.00;0.47;244.85;0.00;0.00;0.62;;;;;16.60;1.00;;;;;;2283989;60;936;-88
2023/09/28 01:41:26;225687.00;0.75;390.13;69296.00;0.23;120.54;;;;;16.60;1.00;;;;;;2283995;60;1398;-88
2023/09/28 01:43:52;260057.00;0.87;449.25;36230.00;0.12;63.37;;;;;16.70;1.00;;;;;;2284109;60;1229;-88
2023/09/28 01:46:18;34608.00;0.12;60.56;0.00;0.00;0.62;;;;;16.80;1.00;;;;;;2284174;60;943;-89
2023/09/28 01:48:45;88026.00;0.29;152.90;0.00;0.00;0.62;;;;;16.90;1.00;;;;;;2284061;60;1443;-87
2023/09/28 01:51:11;0.00;0.00;0.62;0.00;0.00;0.62;;;;;16.90;1.00;;;;;;2283976;60;1370;-88
2023/09/28 01:53:38;116451.00;0.39;201.96;0.00;0.00;0.62;;;;;16.70;1.00;;;;;;2283993;60;1001;-88
2023/09/28 01:56:04;24361.00;0.08;42.82;0.00;0.00;0.62;;;;;16.20;1.00;;;;;;2284053;60;2005;-88
2023/09/28 01:58:33;0.00;0.00;0.62;0.00;0.00;0.62;;;;;15.90;1.00;;;;;;2284170;60;1041;-88
2023/09/28 02:00:58;0.00;0.00;0.62;0.00;0.00;0.62;;;;;15.90;1.00;;;;;;2284019;60;1257;-88
2023/09/28 02:03:26;28901.00;0.10;50.68;0.00;0.00;0.62;;;;;16.10;1.00;;;;;;2284123;60;923;-88
2023/09/28 02:05:52;295177.00;0.98;509.63;93068.00;0.31;161.60;;;;;16.40;1.00;;;;;;2283871;60;1026;-87
2023/09/28 02:08:19;61285.00;0.20;106.70;0.00;0.00;0.62;;;;;16.60;1.00;;;;;;2284114;60;944;-87
2023/09/28 02:10:46;59695.00;0.20;103.95;0.00;0.00;0.62;;;;;16.60;1.00;;;;;;2283999;60;1287;-88
2023/09/28 02:13:12;15016.00;0.05;26.64;0.00;0.00;0.62;;;;;16.90;1.00;;;;;;2283979;60;949;-88
2023/09/28 02:15:42;300589.00;1.00;518.93;25673.00;0.09;45.09;;;;;16.90;1.00;;;;;;2284010;60;1117;-88
2023/09/28 02:18:09;1085.00;0.00;2.50;0.00;0.00;0.62;;;;;16.80;1.00;;;;;;2283902;60;1928;-89
2023/09/28 02:20:34;84001.00;0.28;145.95;0.00;0.00;0.62;;;;;16.70;1.00;;;;;;2283913;60;1466;-88
2023/09/28 02:23:01;113373.00;0.38;196.65;0.00;0.00;0.62;;;;;16.90;1.00;;;;;;2283970;60;1025;-88
2023/09/28 02:25:28;103093.00;0.34;178.91;33550.00;0.11;58.73;;;;;16.90;1.00;;;;;;2283963;60;1915;-86
2023/09/28 02:27:54;154537.00;0.52;267.63;0.00;0.00;0.62;;;;;16.70;1.00;;;;;;2284008;60;1225;-87
2023/09/28 02:30:22;91768.00;0.31;159.36;0.00;0.00;0.62;;;;;16.60;1.00;;;;;;2283962;60;1390;-88
2023/09/28 02:32:51;101420.00;0.34;176.02;5957.00;0.02;10.94;;;;;16.80;1.00;;;;;;2283931;60;1000;-88
2023/09/28 02:35:18;0.00;0.00;0.62;0.00;0.00;0.62;;;;;16.70;1.00;;;;;;2283951;60;1001;-87
2023/09/28 02:37:48;816.00;0.00;2.03;0.00;0.00;0.62;;;;;16.70;1.00;;;;;;2283837;60;2013;-89
2023/09/28 02:40:15;10223.00;0.03;18.34;0.00;0.00;0.62;;;;;16.60;1.00;;;;;;2283905;60;1381;-87
2023/09/28 02:42:42;13669.00;0.05;24.31;0.00;0.00;0.62;;;;;16.70;1.00;;;;;;2283972;60;1830;-88
2023/09/28 02:45:11;252.00;0.00;1.06;0.00;0.00;0.62;;;;;16.60;1.00;;;;;;2283992;60;1085;-88
2023/09/28 02:47:39;71399.00;0.24;124.18;19124.00;0.06;33.75;;;;;16.70;1.00;;;;;;2283920;60;2179;-87
2023/09/28 02:50:09;154159.00;0.51;266.97;0.00;0.00;0.62;;;;;16.80;1.00;;;;;;2283962;60;1378;-86
2023/09/28 02:52:36;0.00;0.00;0.62;0.00;0.00;0.62;;;;;16.60;1.00;;;;;;2283925;60;2414;-88
2023/09/28 02:55:06;70900.00;0.24;123.32;0.00;0.00;0.62;;;;;16.60;1.00;;;;;;2283867;60;1026;-87
2023/09/28 02:57:33;598.00;0.00;1.66;0.00;0.00;0.62;;;;;16.70;1.00;;;;;;2283880;60;1921;-88
2023/09/28 02:59:59;39232.00;0.13;68.56;0.00;0.00;0.62;;;;;16.70;1.00;;;;;;2283867;60;1276;-87
2023/09/28 03:05:22;79479.00;0.26;138.14;0.00;0.00;0.62;;;;;16.90;1.00;;;;;;2402085;40;3721;-86
2023/09/28 03:10:19;213042.00;0.71;368.37;0.00;0.00;0.62;;;;;16.70;1.00;;;;;;2284216;39;3478;-88
2023/09/28 03:12:47;277096.00;0.92;478.54;0.00;0.00;0.62;;;;;16.60;1.00;;;;;;2284326;60;1590;-87
2023/09/28 03:15:16;230968.00;0.77;399.21;0.00;0.00;0.62;;;;;16.70;1.00;;;;;;2284281;60;1660;-88
2023/09/28 03:17:43;287210.00;0.96;495.93;0.00;0.00;0.62;;;;;16.70;1.00;;;;;;2284228;60;1923;-89
2023/09/28 03:20:13;256027.00;0.85;442.32;0.00;0.00;0.62;;;;;16.50;1.00;;;;;;2284178;60;1720;-89
2023/09/28 03:22:41;117733.00;0.39;204.17;22293.00;0.07;39.24;;;;;16.30;1.00;;;;;;2284209;60;1331;-88
2023/09/28 03:25:11;548667.00;1.83;945.66;35886.00;0.12;62.77;;;;;16.10;1.00;;;;;;2284220;60;1698;-88
2023/09/28 03:27:38;70578.00;0.24;122.76;0.00;0.00;0.62;;;;;16.00;1.00;;;;;;2284156;60;1575;-87
2023/09/28 03:30:09;202639.00;0.68;350.47;0.00;0.00;0.62;;;;;16.10;1.00;;;;;;2284294;60;1754;-89
2023/09/28 03:32:37;59093.00;0.20;102.91;0.00;0.00;0.62;;;;;16.00;1.00;;;;;;2284353;60;1020;-88
2023/09/28 03:35:04;270844.00;0.90;467.80;0.00;0.00;0.62;;;;;15.90;1.00;;;;;;2284165;60;1687;-87
2023/09/28 03:37:32;178736.00;0.60;309.31;0.00;0.00;0.62;;;;;15.70;1.00;;;;;;2284102;60;2000;-89
2023/09/28 03:40:00;44751.00;0.15;78.11;0.00;0.00;0.62;;;;;15.70;1.00;;;;;;2284101;60;2117;-89
2023/09/28 03:42:27;264875.00;0.88;457.53;0.00;0.00;0.62;;;;;15.70;1.00;;;;;;2284190;60;1052;-88
2023/09/28 03:44:54;464015.00;1.55;799.89;0.00;0.00;0.62;;;;;15.80;1.00;;;;;;2284073;60;1572;-88
2023/09/28 03:47:21;398779.00;1.33;687.71;0.00;0.00;0.62;;;;;15.90;1.00;;;;;;2284102;60;1043;-88
2023/09/28 03:49:48;708603.00;2.36;1222.16;36687.00;0.12;64.16;;;;;16.10;1.00;;;;;;2284170;60;1292;-89
2023/09/28 03:52:14;558716.00;1.86;962.99;0.00;0.00;0.62;;;;;16.30;1.00;;;;;;2284291;60;1082;-89
2023/09/28 03:54:42;400917.00;1.34;691.38;0.00;0.00;0.62;;;;;16.10;1.00;;;;;;2284309;60;1045;-88
2023/09/28 03:57:09;331340.00;1.10;571.79;0.00;0.00;0.62;;;;;15.80;1.00;;;;;;2284202;60;2004;-88
2023/09/28 03:59:36;459564.00;1.53;792.23;22809.00;0.08;40.13;;;;;15.90;1.00;;;;;;2284169;60;1545;-88
2023/09/28 04:02:03;548519.00;1.83;945.41;27813.00;0.09;48.80;;;;;16.20;1.00;;;;;;2284239;60;1055;-87
2023/09/28 04:04:30;377543.00;1.26;651.20;17080.00;0.06;30.21;;;;;16.30;1.00;;;;;;2285016;60;942;-88
2023/09/28 04:06:56;358998.00;1.20;619.33;0.00;0.00;0.62;;;;;16.20;1.00;;;;;;2284939;60;1413;-88
2023/09/28 04:09:23;694454.00;2.31;1197.62;0.00;0.00;0.62;;;;;16.30;1.00;;;;;;2284884;60;864;-88
2023/09/28 04:11:51;570699.00;1.90;983.65;62887.00;0.21;109.47;;;;;16.40;1.00;;;;;;2284805;60;1192;-87
2023/09/28 04:14:18;586653.00;1.96;1011.18;30261.00;0.10;53.03;;;;;15.90;1.00;;;;;;2284914;60;1022;-87
2023/09/28 04:16:46;665733.00;2.22;1147.86;12270.00;0.04;21.88;;;;;15.80;1.00;;;;;;2284815;60;2000;-88
2023/09/28 04:19:13;419567.00;1.40;723.45;0.00;0.00;0.62;;;;;16.10;1.00;;;;;;2284869;60;1113;-88
2023/09/28 04:21:40;425313.00;1.42;733.33;0.00;0.00;0.62;;;;;16.30;1.00;;;;;;2284763;60;1397;-88
2023/09/28 04:24:07;584073.00;1.95;1006.73;0.00;0.00;0.62;;;;;16.50;1.00;;;;;;2284858;60;1039;-87
2023/09/28 04:26:34;549020.00;1.83;946.27;1583.00;0.01;3.36;;;;;16.60;1.00;;;;;;2284817;60;1100;-89
2023/09/28 04:29:02;443351.00;1.48;764.35;8089.00;0.03;14.64;;;;;16.60;1.00;;;;;;2284878;60;928;-88
2023/09/28 04:31:29;376631.00;1.26;649.63;6936.00;0.02;12.64;;;;;16.60;1.00;;;;;;2284741;60;1394;-87
2023/09/28 04:33:57;529699.00;1.77;912.97;29095.00;0.10;51.02;;;;;16.50;1.00;;;;;;2284926;60;1009;-88
2023/09/28 04:36:25;363924.00;1.21;627.79;0.00;0.00;0.62;;;;;16.60;1.00;;;;;;2284799;60;1118;-87
2023/09/28 04:38:52;440040.00;1.47;758.65;0.00;0.00;0.62;;;;;16.70;1.00;;;;;;2284686;60;1489;-87
2023/09/28 04:41:19;292061.00;0.97;504.27;0.00;0.00;0.62;;;;;16.70;1.00;;;;;;2284786;60;1330;-88
2023/09/28 04:43:45;602990.00;2.01;1039.38;9192.00;0.03;16.55;;;;;16.40;1.00;;;;;;2284714;60;1007;-87
2023/09/28 04:46:14;620037.00;2.07;1068.83;7171.00;0.02;13.05;;;;;16.20;1.00;;;;;;2284642;60;1071;-87
2023/09/28 04:48:41;314572.00;1.05;542.97;0.00;0.00;0.62;;;;;16.20;1.00;;;;;;2284844;60;1000;-86
2023/09/28 04:51:08;629948.00;2.10;1085.96;23027.00;0.08;40.51;;;;;16.10;1.00;;;;;;2284799;60;1245;-88
2023/09/28 04:53:35;621111.00;2.07;1070.69;20976.00;0.07;36.96;;;;;15.60;1.00;;;;;;2284745;60;1025;-86
2023/09/28 04:56:09;507698.00;1.69;875.08;24895.00;0.08;43.75;;;;;15.80;1.00;;;;;;2284670;60;1143;-89
2023/09/28 04:58:36;506689.00;1.69;873.34;24137.00;0.08;42.43;;;;;15.90;1.00;;;;;;2284568;60;1962;-85
2023/09/28 05:01:03;556081.00;1.85;958.44;0.00;0.00;0.62;;;;;16.30;1.00;;;;;;2284682;60;2192;-87
2023/09/28 05:03:31;489420.00;1.63;843.61;11038.00;0.04;19.75;;;;;16.50;1.00;;;;;;2284839;60;1050;-86
2023/09/28 05:05:58;309767.00;1.03;534.71;0.00;0.00;0.62;;;;;16.60;1.00;;;;;;2284645;60;1056;-88
2023/09/28 05:08:26;396900.00;1.32;684.48;0.00;0.00;0.62;;;;;16.70;1.00;;;;;;2284610;60;1737;-88
2023/09/28 05:10:53;548633.00;1.83;945.60;23520.00;0.08;41.37;;;;;16.50;1.00;;;;;;2284640;60;1486;-87
2023/09/28 05:13:21;519829.00;1.73;895.97;0.00;0.00;0.62;;;;;16.60;1.00;;;;;;2284666;60;1095;-88
2023/09/28 05:15:48;526807.00;1.76;907.99;0.00;0.00;0.62;;;;;16.70;1.00;;;;;;2284661;60;1129;-87
2023/09/28 05:18:15;323140.00;1.08;557.70;0.00;0.00;0.62;;;;;16.70;1.00;;;;;;2284757;60;1913;-89
2023/09/28 05:20:43;366027.00;1.22;631.41;0.00;0.00;0.62;;;;;16.80;1.00;;;;;;2284496;60;1359;-87
2023/09/28 05:23:10;396361.00;1.32;683.55;0.00;0.00;0.62;;;;;16.80;1.00;;;;;;2284688;60;1087;-89
2023/09/28 05:25:37;888436.00;2.96;1535.82;60242.00;0.20;104.90;;;;;16.80;1.00;;;;;;2284706;60;1046;-88
2023/09/28 05:28:05;677360.00;2.26;1168.00;92078.00;0.31;159.90;;;;;16.80;1.00;;;;;;2284732;60;1118;-87
2023/09/28 05:30:32;591247.00;1.97;1019.11;39706.00;0.13;69.38;;;;;16.50;1.00;;;;;;2284640;60;1344;-87
2023/09/28 05:32:59;447501.00;1.49;771.48;0.00;0.00;0.62;;;;;16.40;1.00;;;;;;2284515;60;1144;-87
2023/09/28 05:35:26;357457.00;1.19;616.68;0.00;0.00;0.62;;;;;16.40;1.00;;;;;;2284573;60;1106;-87
2023/09/28 05:37:54;452417.00;1.51;779.94;15238.00;0.05;27.02;;;;;16.20;1.00;;;;;;2284581;60;2005;-88
2023/09/28 05:40:21;345326.00;1.15;595.83;0.00;0.00;0.62;;;;;16.50;1.00;;;;;;2284604;60;1424;-87
2023/09/28 05:42:48;428881.00;1.43;739.46;0.00;0.00;0.62;;;;;16.60;1.00;;;;;;2284637;60;927;-88
2023/09/28 05:45:16;273991.00;0.91;473.21;13372.00;0.04;23.79;;;;;16.40;1.00;;;;;;2284707;60;1175;-88
2023/09/28 05:47:42;314416.00;1.05;542.70;0.00;0.00;0.62;;;;;16.30;1.00;;;;;;2284658;60;1572;-88
2023/09/28 05:50:11;299619.00;1.00;517.27;13170.00;0.04;23.44;;;;;16.60;1.00;;;;;;2284369;60;1399;-89
2023/09/28 05:52:37;319889.00;1.07;552.11;17172.00;0.06;30.37;;;;;16.70;1.00;;;;;;2284639;60;1741;-88
2023/09/28 05:55:07;597077.00;1.99;1029.17;0.00;0.00;0.62;;;;;16.50;1.00;;;;;;2284682;60;1043;-88
2023/09/28 05:57:34;627330.00;2.09;1081.43;7354.00;0.02;13.36;;;;;16.20;1.00;;;;;;2284648;60;1918;-87
2023/09/28 06:00:06;821248.00;2.74;1418.21;25656.00;0.09;45.06;;;;;16.00;1.00;;;;;;2284753;60;1257;-87
2023/09/28 06:02:33;326110.00;1.09;562.80;0.00;0.00;0.62;;;;;16.50;1.00;;;;;;2284763;60;1070;-88
2023/09/28 06:05:00;466501.00;1.56;804.17;38987.00;0.13;68.14;;;;;16.80;1.00;;;;;;2284693;60;1091;-88
2023/09/28 06:07:28;568977.00;1.90;980.68;9045.00;0.03;16.29;;;;;16.70;1.00;;;;;;2284649;60;1625;-88
2023/09/28 06:09:55;513291.00;1.71;884.71;53682.00;0.18;93.55;;;;;17.00;1.00;;;;;;2284579;60;1284;-88
2023/09/28 06:12:23;480162.00;1.60;827.68;0.00;0.00;0.62;;;;;16.90;1.00;;;;;;2284653;60;1020;-88
2023/09/28 06:14:50;476305.00;1.59;821.04;0.00;0.00;0.62;;;;;17.20;1.00;;;;;;2284707;60;903;-88
2023/09/28 06:17:17;851174.00;2.84;1470.52;31273.00;0.10;54.79;;;;;17.20;1.00;;;;;;2284643;60;1997;-89
2023/09/28 06:19:44;652495.00;2.17;1124.95;61717.00;0.21;107.44;;;;;16.90;1.00;;;;;;2284636;60;1268;-87
2023/09/28 06:22:10;513642.00;1.71;885.31;0.00;0.00;0.62;;;;;16.50;1.00;;;;;;2284600;60;937;-88
2023/09/28 06:24:39;405537.00;1.35;699.32;10760.00;0.04;19.27;;;;;16.20;1.00;;;;;;2284564;60;1718;-88
2023/09/28 06:27:06;418133.00;1.39;720.98;9783.00;0.03;17.57;;;;;16.10;1.00;;;;;;2284435;60;1073;-89
2023/09/28 06:29:34;440713.00;1.47;759.81;0.00;0.00;0.62;;;;;16.30;1.00;;;;;;2284582;60;1282;-88
2023/09/28 06:32:02;410528.00;1.37;707.90;0.00;0.00;0.62;;;;;16.60;1.00;;;;;;2284515;60;1386;-87
2023/09/28 06:34:28;535915.00;1.79;923.68;15353.00;0.05;27.22;;;;;17.20;1.00;;;;;;2284615;60;1130;-87
2023/09/28 06:36:55;501696.00;1.67;864.74;14709.00;0.05;26.11;;;;;17.70;1.00;;;;;;2284675;60;1015;-87
2023/09/28 06:39:22;428093.00;1.43;738.11;44301.00;0.15;77.33;;;;;18.40;1.00;;;;;;2284575;60;2010;-89
2023/09/28 06:41:49;424610.00;1.42;732.12;10075.00;0.03;18.08;;;;;19.20;1.00;;;;;;2284489;60;1291;-87
2023/09/28 06:44:16;450389.00;1.50;776.45;0.00;0.00;0.62;;;;;20.30;1.00;;;;;;2284583;60;1021;-88
2023/09/28 06:46:44;432576.00;1.44;745.82;0.00;0.00;0.62;;;;;21.40;1.00;;;;;;2284562;60;1060;-87
2023/09/28 06:49:11;176482.00;0.59;305.43;0.00;0.00;0.62;;;;;22.60;1.00;;;;;;2284563;60;1063;-88
2023/09/28 06:51:38;494122.00;1.65;851.70;7575.00;0.03;13.75;;;;;23.40;1.00;;;;;;2284516;60;1397;-86
2023/09/28 06:54:05;364203.00;1.21;628.27;0.00;0.00;0.62;;;;;23.70;1.00;;;;;;2284533;60;1095;-88
2023/09/28 06:56:34;310802.00;1.04;536.49;3604.00;0.01;6.87;;;;;24.10;1.00;;;;;;2284509;60;1197;-88
2023/09/28 06:59:01;327581.00;1.09;565.33;28911.00;0.10;50.70;;;;;24.00;1.00;;;;;;2284478;60;1915;-87
2023/09/28 07:01:28;493069.00;1.64;849.89;29218.00;0.10;51.23;;;;;23.80;1.00;;;;;;2284474;60;1370;-88
2023/09/28 07:03:56;408999.00;1.36;705.28;0.00;0.00;0.62;;;;;23.40;1.00;;;;;;2284473;60;1067;-87
2023/09/28 07:06:24;237609.00;0.79;410.64;0.00;0.00;0.62;;;;;23.50;1.00;;;;;;2284462;60;1552;-87
2023/09/28 07:08:52;292276.00;0.97;504.64;0.00;0.00;0.62;;;;;23.90;1.00;;;;;;2284479;60;1050;-87
2023/09/28 07:11:20;254860.00;0.85;440.31;36620.00;0.12;64.04;;;;;24.10;1.00;;;;;;2284430;60;1282;-87
2023/09/28 07:13:47;252799.00;0.84;436.76;0.00;0.00;0.62;;;;;24.70;1.00;;;;;;2284506;60;1067;-87
2023/09/28 07:16:13;344689.00;1.15;594.73;19495.00;0.06;34.40;;;;;25.20;1.00;;;;;;2284480;60;927;-87
2023/09/28 07:18:40;385294.00;1.28;664.53;0.00;0.00;0.62;;;;;25.40;1.00;;;;;;2284388;60;2010;-89
2023/09/28 07:21:08;335178.00;1.12;578.39;0.00;0.00;0.62;;;;;25.90;1.00;;;;;;2284481;60;1331;-87
2023/09/28 07:23:36;337186.00;1.12;581.84;0.00;0.00;0.62;;;;;26.30;1.00;;;;;;2284412;60;1083;-86
2023/09/28 07:26:03;620686.00;2.07;1069.95;38041.00;0.13;66.50;;;;;26.10;1.00;;;;;;2284442;60;1021;-86
2023/09/28 07:28:30;760515.00;2.54;1312.35;21698.00;0.07;38.21;;;;;26.00;1.00;;;;;;2284435;60;1067;-85
2023/09/28 07:30:57;459426.00;1.53;792.00;0.00;0.00;0.62;;;;;25.10;1.00;;;;;;2284385;60;1382;-85
2023/09/28 07:33:23;402551.00;1.34;694.19;0.00;0.00;0.62;;;;;24.70;1.00;;;;;;2284454;60;1029;-87
2023/09/28 07:35:50;657355.00;2.19;1133.36;73891.00;0.25;128.48;;;;;24.50;1.00;;;;;;2284408;60;1067;-87
2023/09/28 07:38:18;282395.00;0.94;487.66;0.00;0.00;0.62;;;;;24.20;1.00;;;;;;2284668;60;2000;-89
2023/09/28 07:40:45;416818.00;1.39;718.72;0.00;0.00;0.62;;;;;24.10;1.00;;;;;;2285076;60;1381;-87
2023/09/28 07:43:12;631273.00;2.10;1088.25;54560.00;0.18;95.07;;;;;24.20;1.00;;;;;;2285126;60;1113;-87
2023/09/28 07:45:40;538550.00;1.80;928.22;18824.00;0.06;33.23;;;;;24.40;1.00;;;;;;2285114;60;921;-87
2023/09/28 07:48:07;438230.00;1.46;755.54;0.00;0.00;0.62;;;;;24.30;1.00;;;;;;2285067;60;1037;-87
2023/09/28 07:50:34;716097.00;2.39;1235.16;102147.00;0.34;177.28;;;;;24.70;1.00;;;;;;2284975;60;1298;-87
2023/09/28 07:53:01;442672.00;1.48;763.18;10957.00;0.04;19.61;;;;;25.00;1.00;;;;;;2285036;60;1110;-88
2023/09/28 07:55:29;417741.00;1.39;720.31;0.00;0.00;0.62;;;;;25.10;1.00;;;;;;2285057;60;1016;-87
2023/09/28 07:57:56;450177.00;1.50;776.09;23763.00;0.08;41.79;;;;;25.00;1.00;;;;;;2285023;60;1973;-90
2023/09/28 08:00:23;520034.00;1.73;896.32;23613.00;0.08;41.53;;;;;25.30;1.00;;;;;;2285060;60;1364;-87
2023/09/28 08:02:50;435111.00;1.45;750.17;26037.00;0.09;45.72;;;;;25.20;1.00;;;;;;2285074;60;1087;-87
2023/09/28 08:05:16;326335.00;1.09;563.19;0.00;0.00;0.62;;;;;25.40;1.00;;;;;;2285005;60;1517;-86
2023/09/28 08:07:43;280348.00;0.93;484.14;17650.00;0.06;31.20;;;;;24.80;1.00;;;;;;2284969;60;1604;-87
2023/09/28 08:10:11;345986.00;1.15;596.96;21928.00;0.07;38.61;;;;;24.30;1.00;;;;;;2284963;60;1289;-87
2023/09/28 08:12:39;341083.00;1.14;588.54;23399.00;0.08;41.16;;;;;24.30;1.00;;;;;;2284963;60;1107;-86
2023/09/28 08:15:07;314713.00;1.05;543.21;28465.00;0.09;49.93;;;;;24.20;1.00;;;;;;2285051;60;1138;-88
2023/09/28 08:17:36;409368.00;1.36;705.91;0.00;0.00;0.62;;;;;23.80;1.00;;;;;;2285000;60;1090;-88
2023/09/28 08:20:03;324653.00;1.08;560.30;0.00;0.00;0.62;;;;;24.10;1.00;;;;;;2284937;60;1471;-86
2023/09/28 08:22:32;479743.00;1.60;826.96;31782.00;0.11;55.67;;;;;24.20;1.00;;;;;;2284957;60;1134;-86
2023/09/28 08:24:59;329904.00;1.10;569.32;24936.00;0.08;43.82;;;;;24.20;1.00;;;;;;2285023;60;1118;-87
2023/09/28 08:27:26;564340.00;1.88;972.68;36850.00;0.12;64.44;;;;;24.70;1.00;;;;;;2284890;60;1008;-87
2023/09/28 08:29:55;474536.00;1.58;817.99;11619.00;0.04;20.75;;;;;24.80;1.00;;;;;;2284903;60;1357;-86
2023/09/28 08:32:22;645050.00;2.15;1112.07;28831.00;0.10;50.56;;;;;24.90;1.00;;;;;;2284990;60;1325;-88
2023/09/28 08:34:49;628073.00;2.09;1082.72;0.00;0.00;0.62;;;;;24.30;1.00;;;;;;2284973;60;1061;-87
2023/09/28 08:37:16;339203.00;1.13;585.30;0.00;0.00;0.62;;;;;24.50;1.00;;;;;;2284947;60;1087;-89
2023/09/28 08:39:43;615775.00;2.05;1061.47;71166.00;0.24;123.78;;;;;24.40;1.00;;;;;;2284932;60;1926;-87
2023/09/28 08:42:14;395619.00;1.32;682.27;8246.00;0.03;14.91;;;;;24.40;1.00;;;;;;2284782;60;1067;-86
2023/09/28 08:44:42;844476.00;2.81;1458.80;60533.00;0.20;105.40;;;;;24.20;1.00;;;;;;2284615;60;1114;-87
2023/09/28 08:47:16;632130.00;2.11;1089.73;32864.00;0.11;57.54;;;;;23.80;1.00;;;;;;2284960;60;931;-87
2023/09/28 08:49:47;377132.00;1.26;650.50;24201.00;0.08;42.54;;;;;24.10;1.00;;;;;;2284742;60;1355;-86
2023/09/28 08:52:15;446963.00;1.49;770.56;0.00;0.00;0.62;;;;;24.80;1.00;;;;;;2284923;60;965;-87
2023/09/28 08:54:43;375241.00;1.25;647.25;0.00;0.00;0.62;;;;;25.00;1.00;;;;;;2284862;60;1106;-88
2023/09/28 08:57:11;600117.00;2.00;1034.42;42176.00;0.14;73.65;;;;;24.80;1.00;;;;;;2284823;60;1775;-88
2023/09/28 08:59:39;441924.00;1.47;761.89;0.00;0.00;0.62;;;;;24.70;1.00;;;;;;2284829;60;1919;-88
2023/09/28 09:02:06;478901.00;1.60;825.51;42732.00;0.14;74.61;;;;;24.30;1.00;;;;;;2284885;60;1136;-88
2023/09/28 09:04:35;508775.00;1.70;876.93;18384.00;0.06;32.47;;;;;24.00;1.00;;;;;;2284919;60;1063;-88
2023/09/28 09:07:03;226376.00;0.75;391.31;0.00;0.00;0.62;;;;;24.10;1.00;;;;;;2284828;60;2095;-86
2023/09/28 09:09:33;388416.00;1.29;669.89;18496.00;0.06;32.67;;;;;24.60;1.00;;;;;;2284840;60;1018;-85
2023/09/28 09:12:05;405948.00;1.35;700.03;0.00;0.00;0.62;;;;;24.90;1.00;;;;;;2284806;60;1039;-87
2023/09/28 09:14:32;620198.00;2.07;1069.11;0.00;0.00;0.62;;;;;24.90;1.00;;;;;;2284858;60;1159;-86
2023/09/28 09:17:00;516845.00;1.72;890.83;0.00;0.00;0.62;;;;;24.90;1.00;;;;;;2284822;60;1052;-86
2023/09/28 09:19:30;469215.00;1.56;808.84;58262.00;0.19;101.47;;;;;25.10;1.00;;;;;;2284731;60;1941;-88
2023/09/28 09:21:58;458915.00;1.53;791.12;52944.00;0.18;92.28;;;;;25.20;1.00;;;;;;2284807;60;1145;-88
2023/09/28 09:24:25;447907.00;1.49;772.18;74719.00;0.25;129.91;;;;;25.60;1.00;;;;;;2284837;60;1018;-88
2023/09/28 09:26:55;333942.00;1.11;576.26;0.00;0.00;0.62;;;;;26.20;1.00;;;;;;2284801;60;1024;-88
2023/09/28 09:29:23;83743.00;0.28;145.50;0.00;0.00;0.62;;;;;26.50;1.00;;;;;;2284848;60;1055;-89
2023/09/28 09:31:51;182900.00;0.61;316.48;5893.00;0.02;10.83;;;;;25.60;1.00;;;;;;2284771;60;1301;-88
2023/09/28 09:34:20;37662.00;0.13;65.84;0.00;0.00;0.62;;;;;25.20;1.00;;;;;;2284787;60;1167;-85
2023/09/28 09:36:55;53911.00;0.18;93.95;0.00;0.00;0.62;;;;;25.40;1.00;;;;;;2284774;60;1071;-86
2023/09/28 09:39:24;0.00;0.00;0.62;0.00;0.00;0.62;;;;;25.30;1.00;;;;;;2284689;60;2019;-86
2023/09/28 09:41:52;44001.00;0.15;76.81;0.00;0.00;0.62;;;;;25.40;1.00;;;;;;2284747;60;2148;-85
2023/09/28 09:44:20;98136.00;0.33;170.35;0.00;0.00;0.62;;;;;25.50;1.00;;;;;;2284685;60;2245;-87
2023/09/28 09:46:49;104073.00;0.35;180.60;0.00;0.00;0.62;;;;;26.00;1.00;;;;;;2284688;60;1540;-87
2023/09/28 09:49:16;37885.00;0.13;66.23;0.00;0.00;0.62;;;;;25.90;1.00;;;;;;2284701;60;1734;-87
2023/09/28 09:51:46;70678.00;0.24;122.93;0.00;0.00;0.62;;;;;25.60;1.00;;;;;;2284749;60;1283;-86
2023/09/28 09:54:14;182168.00;0.61;315.22;31496.00;0.10;55.17;;;;;25.50;1.00;;;;;;2284711;60;1496;-87
2023/09/28 09:56:46;33616.00;0.11;58.84;0.00;0.00;0.62;;;;;25.70;1.00;;;;;;2284755;60;960;-87
2023/09/28 09:59:15;93041.00;0.31;161.56;26812.00;0.09;47.06;;;;;25.70;1.00;;;;;;2284708;60;2002;-88